Time;durP1;ratioP1;P1;durP2;ratioP2;P2;SDS_P1;SDS_P2;PMS_P1;PMS_P2;Temp;Humidity;BMP_temperature;BMP_pressure;BME280_temperature;BME280_humidity;BME280_pressure;Samples;Min_cycle;Max_cycle;Signal;HPM_P1;HPM_P2
2022/08/05 00:01:20;;;;;;;8.32;3.22;;;19.60;99.90;;;;;;5008842;28;20049;-60
2022/08/05 00:03:47;;;;;;;6.50;3.03;;;19.60;99.90;;;;;;5010239;28;20046;-59
2022/08/05 00:06:14;;;;;;;6.20;3.10;;;19.60;99.90;;;;;;5008879;28;20076;-63
2022/08/05 00:08:40;;;;;;;8.43;3.20;;;19.60;99.90;;;;;;5013905;28;20511;-60
2022/08/05 00:11:10;;;;;;;6.65;3.00;;;19.60;99.90;;;;;;5009768;28;20127;-59
2022/08/05 00:13:37;;;;;;;8.20;3.20;;;19.70;99.90;;;;;;5008328;28;20508;-60
2022/08/05 00:16:04;;;;;;;7.82;2.97;;;19.70;99.90;;;;;;5010573;28;20049;-60
2022/08/05 00:18:30;;;;;;;5.53;3.10;;;19.70;99.90;;;;;;5009630;28;20509;-60
2022/08/05 00:20:56;;;;;;;5.95;3.50;;;19.70;99.90;;;;;;5009347;28;20085;-60
2022/08/05 00:23:22;;;;;;;5.25;2.60;;;19.70;99.90;;;;;;5009896;28;20085;-60
2022/08/05 00:25:48;;;;;;;7.50;3.13;;;19.70;99.90;;;;;;5010593;28;20061;-60
2022/08/05 00:28:15;;;;;;;7.72;3.28;;;19.70;99.90;;;;;;5010943;28;20057;-65
2022/08/05 00:30:41;;;;;;;8.98;3.42;;;19.70;99.90;;;;;;5041207;28;20045;-60
2022/08/05 00:33:07;;;;;;;8.20;3.38;;;19.60;99.90;;;;;;5010529;28;20570;-60
2022/08/05 00:35:33;;;;;;;8.00;3.33;;;19.60;99.90;;;;;;5008459;28;20042;-60
2022/08/05 00:37:59;;;;;;;9.07;2.85;;;19.60;99.90;;;;;;4992350;28;20042;-60
2022/08/05 00:40:25;;;;;;;7.47;3.58;;;19.60;99.90;;;;;;5008152;28;20046;-60
2022/08/05 00:42:51;;;;;;;8.18;2.80;;;19.60;99.90;;;;;;5007760;28;20046;-59
2022/08/05 00:45:17;;;;;;;8.38;3.60;;;19.50;99.90;;;;;;5009644;28;20372;-63
2022/08/05 00:47:43;;;;;;;7.28;3.40;;;19.50;99.90;;;;;;5009798;28;20046;-59
2022/08/05 00:50:09;;;;;;;7.18;3.92;;;19.50;99.90;;;;;;5025262;28;20053;-60
2022/08/05 00:52:35;;;;;;;6.18;3.75;;;19.50;99.90;;;;;;5009778;28;20038;-59
2022/08/05 00:55:01;;;;;;;6.78;4.13;;;19.40;99.90;;;;;;5010368;28;20046;-60
2022/08/05 00:57:27;;;;;;;10.15;3.85;;;19.40;99.90;;;;;;5009931;28;20112;-60
2022/08/05 00:59:52;;;;;;;7.60;4.15;;;19.30;99.90;;;;;;5009969;28;20049;-60
2022/08/05 01:02:19;;;;;;;8.43;4.28;;;19.30;99.90;;;;;;5009257;28;20451;-60
2022/08/05 01:04:44;;;;;;;7.38;4.50;;;19.30;99.90;;;;;;5009925;28;20077;-60
2022/08/05 01:07:10;;;;;;;7.32;4.13;;;19.20;99.90;;;;;;5009889;28;20112;-60
2022/08/05 01:09:36;;;;;;;8.85;4.28;;;19.20;99.90;;;;;;5009462;28;20377;-60
2022/08/05 01:12:05;;;;;;;8.20;4.47;;;19.20;99.90;;;;;;5025011;28;20476;-60
2022/08/05 01:14:37;;;;;;;9.45;4.55;;;19.20;99.90;;;;;;5009061;28;20048;-60
2022/08/05 01:17:10;;;;;;;6.88;4.20;;;19.20;99.90;;;;;;5009731;28;20049;-60
2022/08/05 01:19:50;;;;;;;9.60;4.03;;;19.20;99.90;;;;;;5009506;28;20100;-61
2022/08/05 01:22:31;;;;;;;9.63;4.20;;;19.20;99.90;;;;;;5009368;28;20050;-61
2022/08/05 01:25:21;;;;;;;8.35;4.43;;;19.20;99.90;;;;;;5013005;28;20464;-62
2022/08/05 01:27:58;;;;;;;10.48;4.20;;;19.20;99.90;;;;;;5008601;28;20049;-60
2022/08/05 01:30:27;;;;;;;8.10;3.42;;;19.20;99.90;;;;;;5013183;28;20077;-64
2022/08/05 01:32:55;;;;;;;8.20;3.95;;;19.20;99.90;;;;;;5045274;28;20120;-60
2022/08/05 01:35:26;;;;;;;7.45;3.40;;;19.20;99.90;;;;;;5009599;28;20053;-60
2022/08/05 01:37:55;;;;;;;6.00;3.53;;;19.20;99.90;;;;;;5011914;28;20069;-61
2022/08/05 01:40:25;;;;;;;7.78;3.83;;;19.20;99.90;;;;;;5012008;28;20046;-61
2022/08/05 01:42:52;;;;;;;6.70;4.03;;;19.20;99.90;;;;;;5013592;28;20088;-61
2022/08/05 01:45:19;;;;;;;8.30;3.53;;;19.20;99.90;;;;;;4995535;28;20050;-61
2022/08/05 01:47:46;;;;;;;6.43;3.40;;;19.20;99.90;;;;;;5027799;28;20649;-60
2022/08/05 01:50:39;;;;;;;8.60;3.33;;;19.20;99.90;;;;;;5012516;28;20117;-60
2022/08/05 01:53:10;;;;;;;8.60;3.60;;;19.20;99.90;;;;;;5011986;28;20047;-60
2022/08/05 01:55:38;;;;;;;7.00;3.30;;;19.20;99.90;;;;;;5017118;28;20100;-60
2022/08/05 01:58:07;;;;;;;10.20;3.40;;;19.20;99.90;;;;;;5012917;28;20341;-60
2022/08/05 02:00:37;;;;;;;7.32;3.30;;;19.20;99.90;;;;;;4994849;28;20046;-60
2022/08/05 02:03:22;;;;;;;6.00;3.38;;;19.20;99.90;;;;;;5012465;28;20045;-59
2022/08/05 02:05:49;;;;;;;7.10;3.72;;;19.10;99.90;;;;;;5010734;28;20082;-60
2022/08/05 02:08:15;;;;;;;6.03;3.33;;;19.10;99.90;;;;;;5012475;28;20108;-62
2022/08/05 02:11:06;;;;;;;6.60;3.30;;;19.10;99.90;;;;;;5012341;28;20135;-60
2022/08/05 02:13:59;;;;;;;8.95;4.15;;;19.10;99.90;;;;;;5012198;28;20077;-60
2022/08/05 02:16:33;;;;;;;11.82;4.22;;;19.10;99.90;;;;;;5017716;28;20118;-60
2022/08/05 02:19:10;;;;;;;5.88;3.50;;;19.10;99.90;;;;;;5012584;28;20034;-60
2022/08/05 02:21:40;;;;;;;8.57;3.70;;;19.10;99.90;;;;;;5010487;28;20049;-60
2022/08/05 02:24:10;;;;;;;7.68;3.50;;;19.10;99.90;;;;;;5008722;28;20104;-60
2022/08/05 02:26:43;;;;;;;7.07;3.70;;;19.10;99.90;;;;;;4996166;28;20074;-59
2022/08/05 02:29:11;;;;;;;7.32;3.30;;;19.10;99.90;;;;;;5004202;28;20044;-60
2022/08/05 02:31:39;;;;;;;5.07;3.05;;;19.10;99.90;;;;;;4995350;28;20125;-59
2022/08/05 02:34:13;;;;;;;8.55;3.58;;;19.10;99.90;;;;;;5004445;28;20046;-59
2022/08/05 02:36:44;;;;;;;7.72;3.58;;;19.10;99.90;;;;;;5011044;28;20045;-60
2022/08/05 02:39:11;;;;;;;6.82;3.40;;;19.00;99.90;;;;;;5012249;28;20046;-61
2022/08/05 02:41:39;;;;;;;6.45;3.30;;;19.00;99.90;;;;;;5011285;28;20064;-60
2022/08/05 02:44:10;;;;;;;7.82;3.78;;;19.00;99.90;;;;;;5011475;28;20177;-60
2022/08/05 02:46:39;;;;;;;9.10;3.15;;;19.00;99.90;;;;;;5042589;28;20053;-64
2022/08/05 02:49:06;;;;;;;7.00;3.53;;;19.00;99.90;;;;;;5006058;28;20064;-61
2022/08/05 02:51:33;;;;;;;7.57;3.00;;;19.00;99.90;;;;;;5008017;28;20081;-60
2022/08/05 02:54:00;;;;;;;8.10;3.00;;;19.00;99.90;;;;;;5010812;28;20045;-61
2022/08/05 02:56:26;;;;;;;9.30;3.50;;;19.00;99.90;;;;;;5012202;28;20049;-60
2022/08/05 02:58:53;;;;;;;7.95;3.25;;;19.00;99.90;;;;;;5011032;28;20049;-60
2022/08/05 03:01:23;;;;;;;7.90;3.03;;;19.00;99.90;;;;;;5012248;28;20495;-61
2022/08/05 03:03:53;;;;;;;6.78;2.92;;;19.00;99.90;;;;;;5042897;28;20092;-60
2022/08/05 03:06:21;;;;;;;6.70;2.88;;;19.00;99.90;;;;;;5012283;28;20064;-61
2022/08/05 03:08:48;;;;;;;7.72;3.20;;;19.00;99.90;;;;;;5010690;28;20069;-60
2022/08/05 03:11:25;;;;;;;5.95;2.97;;;19.00;99.90;;;;;;5010731;28;20057;-60
2022/08/05 03:13:52;;;;;;;7.80;2.95;;;19.00;99.90;;;;;;5008657;28;20061;-60
2022/08/05 03:16:18;;;;;;;6.20;3.10;;;19.00;99.90;;;;;;5011403;28;20423;-60
2022/08/05 03:18:43;;;;;;;8.25;3.10;;;19.00;99.90;;;;;;5011825;28;20071;-60
2022/08/05 03:21:09;;;;;;;7.38;3.20;;;19.00;99.90;;;;;;5010883;28;20497;-60
2022/08/05 03:23:37;;;;;;;7.78;3.72;;;19.00;99.90;;;;;;5011457;28;20091;-63
2022/08/05 03:26:03;;;;;;;5.90;3.42;;;19.00;99.90;;;;;;5010601;28;20049;-63
2022/08/05 03:28:30;;;;;;;8.43;3.83;;;19.00;99.90;;;;;;5012170;28;20038;-60
2022/08/05 03:30:58;;;;;;;7.78;3.55;;;18.90;99.90;;;;;;5010567;28;20053;-61
2022/08/05 03:33:26;;;;;;;6.05;3.15;;;18.90;99.90;;;;;;5011293;28;20380;-60
2022/08/05 03:35:54;;;;;;;5.97;3.13;;;18.90;99.90;;;;;;5010516;28;20057;-61
2022/08/05 03:38:21;;;;;;;6.68;3.30;;;18.90;99.90;;;;;;5011455;28;20049;-60
2022/08/05 03:40:47;;;;;;;6.32;2.92;;;18.90;99.90;;;;;;5010592;28;20072;-61
2022/08/05 03:43:13;;;;;;;6.82;3.22;;;18.90;99.90;;;;;;5010619;28;20038;-61
2022/08/05 03:45:38;;;;;;;6.55;3.47;;;18.80;99.90;;;;;;5009564;28;20065;-60
2022/08/05 03:48:04;;;;;;;7.35;3.58;;;18.80;99.90;;;;;;5009729;28;20034;-60
2022/08/05 03:50:54;;;;;;;7.45;3.70;;;18.80;99.90;;;;;;5011888;28;20038;-61
2022/08/05 03:53:42;;;;;;;9.18;3.67;;;18.80;99.90;;;;;;5010390;28;20046;-61
2022/08/05 03:56:18;;;;;;;6.85;2.90;;;18.80;99.90;;;;;;5008711;28;20503;-60
2022/08/05 03:58:46;;;;;;;6.35;3.10;;;18.80;99.90;;;;;;5010671;28;20050;-64
2022/08/05 04:01:15;;;;;;;6.38;2.90;;;18.80;99.90;;;;;;5011352;28;20052;-60
2022/08/05 04:03:43;;;;;;;7.72;3.10;;;18.80;99.90;;;;;;5010752;28;20053;-61
2022/08/05 04:06:09;;;;;;;6.97;2.90;;;18.80;99.90;;;;;;5010007;28;20053;-61
2022/08/05 04:08:35;;;;;;;5.82;2.97;;;18.70;99.90;;;;;;5008054;28;20490;-61
2022/08/05 04:11:02;;;;;;;6.80;2.90;;;18.70;99.90;;;;;;5013178;28;20539;-61
2022/08/05 04:13:29;;;;;;;4.30;2.90;;;18.70;99.90;;;;;;5010246;28;20057;-60
2022/08/05 04:15:55;;;;;;;8.55;3.33;;;18.70;99.90;;;;;;5009802;28;20451;-60
2022/08/05 04:18:25;;;;;;;7.53;3.80;;;18.70;99.90;;;;;;5010309;28;20049;-60
2022/08/05 04:20:55;;;;;;;5.47;2.90;;;18.70;99.90;;;;;;5008011;28;20045;-60
2022/08/05 04:23:23;;;;;;;7.53;3.30;;;18.60;99.90;;;;;;5009904;28;20499;-60
2022/08/05 04:25:49;;;;;;;9.20;3.40;;;18.60;99.90;;;;;;5010023;28;20049;-64
2022/08/05 04:28:15;;;;;;;6.50;3.28;;;18.60;99.90;;;;;;5009998;28;20038;-62
2022/08/05 04:30:41;;;;;;;6.75;3.45;;;18.60;99.90;;;;;;5011493;28;20176;-61
2022/08/05 04:33:07;;;;;;;6.78;3.40;;;18.60;99.90;;;;;;5008434;28;20046;-60
2022/08/05 04:35:32;;;;;;;7.80;3.40;;;18.60;99.90;;;;;;5009989;28;20057;-59
2022/08/05 04:37:58;;;;;;;5.28;3.03;;;18.60;99.90;;;;;;5009325;28;20037;-59
2022/08/05 04:40:24;;;;;;;6.25;3.42;;;18.60;99.90;;;;;;5009848;28;20077;-60
2022/08/05 04:42:50;;;;;;;5.03;3.22;;;18.70;99.90;;;;;;5041254;28;20380;-63
2022/08/05 04:45:15;;;;;;;5.10;3.25;;;18.60;99.90;;;;;;5009793;28;20053;-60
2022/08/05 04:47:41;;;;;;;5.15;3.00;;;18.60;99.90;;;;;;5009844;28;20072;-60
2022/08/05 04:50:07;;;;;;;5.93;3.10;;;18.50;99.90;;;;;;5009736;28;20049;-60
2022/08/05 04:52:33;;;;;;;6.22;3.25;;;18.50;99.90;;;;;;5016777;28;20038;-59
2022/08/05 04:54:59;;;;;;;7.55;3.50;;;18.50;99.90;;;;;;5009654;28;20348;-60
2022/08/05 04:57:25;;;;;;;6.03;3.35;;;18.50;99.90;;;;;;5009826;28;20129;-60
2022/08/05 04:59:51;;;;;;;9.95;3.20;;;18.60;99.90;;;;;;5013821;28;20132;-59
2022/08/05 05:02:16;;;;;;;6.45;3.30;;;18.60;99.90;;;;;;5011465;28;20121;-60
2022/08/05 05:04:42;;;;;;;4.38;3.00;;;18.60;99.90;;;;;;5013580;28;20088;-60
2022/08/05 05:07:08;;;;;;;4.97;3.08;;;18.60;99.90;;;;;;5013226;28;20069;-60
2022/08/05 05:09:34;;;;;;;8.80;3.88;;;18.60;99.90;;;;;;5011463;28;20124;-60
2022/08/05 05:12:00;;;;;;;8.80;3.58;;;18.60;99.90;;;;;;5010997;28;20042;-60
2022/08/05 05:14:26;;;;;;;7.00;3.50;;;18.60;99.90;;;;;;4999971;28;20053;-61
2022/08/05 05:16:52;;;;;;;6.43;3.67;;;18.60;99.90;;;;;;5012194;28;20046;-60
2022/08/05 05:19:18;;;;;;;8.18;3.75;;;18.60;99.90;;;;;;5044772;28;20492;-60
2022/08/05 05:21:43;;;;;;;6.85;3.50;;;18.60;99.90;;;;;;5012718;28;20048;-60
2022/08/05 05:24:09;;;;;;;7.65;3.80;;;18.60;99.90;;;;;;5013619;28;20041;-59
2022/08/05 05:26:35;;;;;;;6.97;3.80;;;18.60;99.90;;;;;;5028569;28;20077;-60
2022/08/05 05:29:00;;;;;;;6.50;3.80;;;18.60;99.90;;;;;;5012637;28;20140;-61
2022/08/05 05:31:26;;;;;;;6.82;3.67;;;18.60;99.90;;;;;;5013175;28;20049;-59
2022/08/05 05:33:52;;;;;;;5.97;3.20;;;18.60;99.90;;;;;;4994250;28;20046;-59
2022/08/05 05:36:17;;;;;;;5.50;3.70;;;18.60;99.90;;;;;;5012738;28;20280;-60
2022/08/05 05:38:43;;;;;;;5.93;3.33;;;18.50;99.90;;;;;;5012873;28;20038;-59
2022/08/05 05:41:09;;;;;;;6.75;3.75;;;18.50;99.90;;;;;;5011645;28;20052;-60
2022/08/05 05:43:35;;;;;;;6.03;3.30;;;18.50;99.90;;;;;;5011847;28;20129;-60
2022/08/05 05:46:00;;;;;;;8.15;3.30;;;18.60;99.90;;;;;;5026929;28;20507;-63
2022/08/05 05:48:26;;;;;;;6.47;3.30;;;18.60;99.90;;;;;;5028233;28;20046;-60
2022/08/05 05:50:52;;;;;;;6.05;3.75;;;18.60;99.90;;;;;;5040207;28;20212;-60
2022/08/05 05:53:17;;;;;;;6.15;3.55;;;18.60;99.90;;;;;;5012237;28;20427;-60
2022/08/05 05:55:45;;;;;;;7.90;3.80;;;18.60;99.90;;;;;;5012376;28;20316;-60
2022/08/05 05:58:10;;;;;;;5.15;3.28;;;18.70;99.90;;;;;;5009748;28;20042;-60
2022/08/05 06:00:36;;;;;;;8.35;3.30;;;18.70;99.90;;;;;;5012959;28;20046;-60
2022/08/05 06:03:02;;;;;;;4.28;3.05;;;18.80;99.90;;;;;;5010900;28;20428;-63
2022/08/05 06:05:28;;;;;;;6.78;3.10;;;19.10;99.90;;;;;;5013243;28;20042;-60
2022/08/05 06:07:53;;;;;;;5.40;2.78;;;19.30;99.90;;;;;;5012582;28;20052;-60
2022/08/05 06:10:19;;;;;;;4.28;2.60;;;19.50;99.90;;;;;;5010756;28;20042;-60
2022/08/05 06:12:45;;;;;;;5.68;2.67;;;19.90;99.90;;;;;;5012379;28;20041;-60
2022/08/05 06:15:10;;;;;;;5.53;2.35;;;20.50;99.90;;;;;;5011889;28;20050;-61
2022/08/05 06:17:36;;;;;;;5.18;2.53;;;21.40;99.90;;;;;;5012981;28;20132;-59
2022/08/05 06:20:04;;;;;;;5.43;2.20;;;22.60;99.90;;;;;;5011798;28;20484;-60
2022/08/05 06:22:32;;;;;;;5.20;2.33;;;23.60;99.90;;;;;;5012041;28;20510;-60
2022/08/05 06:24:58;;;;;;;3.92;1.83;;;24.40;99.90;;;;;;5012315;28;20483;-60
2022/08/05 06:27:24;;;;;;;3.55;1.80;;;25.10;99.90;;;;;;5042723;28;20056;-62
2022/08/05 06:29:49;;;;;;;4.68;2.03;;;25.60;99.40;;;;;;5012357;28;20053;-61
2022/08/05 06:32:15;;;;;;;3.10;1.65;;;25.80;99.10;;;;;;5011459;28;20117;-61
2022/08/05 06:34:41;;;;;;;5.32;1.70;;;26.10;98.80;;;;;;5012301;28;20430;-61
2022/08/05 06:37:07;;;;;;;2.67;1.30;;;26.60;97.30;;;;;;5011716;28;20121;-64
2022/08/05 06:39:32;;;;;;;4.00;1.42;;;27.00;96.80;;;;;;5010993;28;20050;-62
2022/08/05 06:42:01;;;;;;;4.45;1.50;;;27.10;96.40;;;;;;5011436;28;20462;-61
2022/08/05 06:44:27;;;;;;;2.67;1.20;;;27.00;96.30;;;;;;5011609;28;20045;-61
2022/08/05 06:46:54;;;;;;;2.80;1.20;;;27.10;95.80;;;;;;5009694;28;20137;-63
2022/08/05 06:49:20;;;;;;;3.78;1.60;;;27.50;95.20;;;;;;5006870;28;20042;-61
2022/08/05 06:51:45;;;;;;;6.50;1.63;;;28.00;95.10;;;;;;5011485;28;20052;-62
2022/08/05 06:54:11;;;;;;;4.13;1.25;;;28.40;94.40;;;;;;5010144;28;20077;-60
2022/08/05 06:56:37;;;;;;;3.20;1.13;;;28.40;94.70;;;;;;5009235;28;20061;-61
2022/08/05 06:59:04;;;;;;;3.15;1.17;;;28.30;93.90;;;;;;5040360;28;20046;-61
2022/08/05 07:01:30;;;;;;;2.60;1.13;;;28.00;93.80;;;;;;5010908;28;20866;-60
2022/08/05 07:03:56;;;;;;;2.85;1.00;;;27.90;94.10;;;;;;5011494;28;20100;-60
2022/08/05 07:06:22;;;;;;;4.82;1.23;;;27.90;93.90;;;;;;5010761;28;20037;-61
2022/08/05 07:08:47;;;;;;;2.47;1.00;;;28.00;93.50;;;;;;5007324;28;20396;-61
2022/08/05 07:11:14;;;;;;;2.13;0.98;;;28.30;93.10;;;;;;5004571;28;20050;-61
2022/08/05 07:19:08;;;;;;;2.35;0.82;;;29.20;92.30;;;;;;5009200;28;20061;-61
2022/08/05 07:21:34;;;;;;;1.98;0.95;;;29.40;91.60;;;;;;5010320;28;20056;-61
2022/08/05 07:23:59;;;;;;;3.00;1.15;;;29.80;91.40;;;;;;5007689;28;20042;-61
2022/08/05 07:26:25;;;;;;;3.67;1.10;;;30.10;91.20;;;;;;5009010;28;20081;-61
2022/08/05 07:28:51;;;;;;;4.47;1.10;;;30.40;90.70;;;;;;5010652;28;20042;-62
2022/08/05 07:31:17;;;;;;;2.70;0.98;;;30.20;90.30;;;;;;5009987;28;20046;-61
2022/08/05 07:33:43;;;;;;;2.50;1.00;;;29.50;90.60;;;;;;5011017;28;20376;-61
2022/08/05 07:36:09;;;;;;;2.60;1.00;;;29.40;91.10;;;;;;5010744;28;20042;-61
2022/08/05 07:38:36;;;;;;;2.88;0.90;;;30.00;90.70;;;;;;5008896;28;20156;-60
2022/08/05 07:41:07;;;;;;;1.70;0.70;;;30.70;90.10;;;;;;5014320;28;20491;-61
2022/08/05 07:43:33;;;;;;;2.38;0.85;;;31.00;88.90;;;;;;5013293;28;20042;-62
2022/08/05 07:45:59;;;;;;;3.75;1.00;;;31.10;88.70;;;;;;5009053;28;20057;-62
2022/08/05 07:48:25;;;;;;;1.08;0.77;;;31.10;88.00;;;;;;5041979;28;20046;-62
2022/08/05 07:50:50;;;;;;;1.77;0.80;;;31.40;87.50;;;;;;5007123;28;20046;-62
2022/08/05 07:53:16;;;;;;;2.42;0.93;;;31.90;86.50;;;;;;5010483;28;20049;-65
2022/08/05 07:55:42;;;;;;;2.30;0.90;;;32.10;86.20;;;;;;5009340;28;20073;-62
2022/08/05 07:58:09;;;;;;;3.67;0.95;;;32.40;84.70;;;;;;5010215;28;20045;-61
2022/08/05 08:00:35;;;;;;;2.42;0.93;;;32.70;84.20;;;;;;5009994;28;20120;-62
2022/08/05 08:03:01;;;;;;;2.83;0.95;;;32.90;84.30;;;;;;5015842;28;20042;-63
2022/08/05 08:05:27;;;;;;;2.78;1.05;;;32.50;84.00;;;;;;5041843;28;20042;-62
2022/08/05 08:07:56;;;;;;;2.00;0.80;;;31.90;84.30;;;;;;5010264;28;20073;-62
2022/08/05 08:10:22;;;;;;;2.78;1.00;;;30.70;85.10;;;;;;5040319;28;20128;-61
2022/08/05 08:12:49;;;;;;;2.42;1.00;;;29.60;86.40;;;;;;5011245;28;20503;-61
2022/08/05 08:15:15;;;;;;;2.78;0.98;;;29.00;88.00;;;;;;5010101;28;20053;-61
2022/08/05 08:17:41;;;;;;;2.20;1.10;;;29.20;88.00;;;;;;5004081;28;21532;-62
2022/08/05 08:20:07;;;;;;;1.73;0.70;;;29.90;85.70;;;;;;5003488;28;20590;-61
2022/08/05 08:22:33;;;;;;;4.07;1.00;;;30.30;84.90;;;;;;5008865;28;20128;-61
2022/08/05 08:24:59;;;;;;;1.98;0.90;;;30.10;84.50;;;;;;5010300;28;20129;-61
2022/08/05 08:27:25;;;;;;;2.40;0.85;;;29.80;85.80;;;;;;5004646;28;20048;-60
2022/08/05 08:29:51;;;;;;;2.25;1.10;;;29.80;85.60;;;;;;5009591;28;20041;-61
2022/08/05 08:32:16;;;;;;;2.38;1.17;;;29.30;86.30;;;;;;5009332;28;20115;-60
2022/08/05 08:34:42;;;;;;;2.33;1.00;;;28.50;88.50;;;;;;5010517;28;20042;-60
2022/08/05 08:37:08;;;;;;;5.07;0.75;;;27.90;90.00;;;;;;5009070;28;20133;-61
2022/08/05 08:39:34;;;;;;;3.15;0.73;;;27.80;90.30;;;;;;5009136;28;20038;-61
2022/08/05 08:42:01;;;;;;;2.78;0.90;;;28.20;90.30;;;;;;5010156;28;20042;-61
2022/08/05 08:44:30;;;;;;;1.92;0.77;;;29.00;89.80;;;;;;5011579;28;20049;-61
2022/08/05 08:46:56;;;;;;;2.25;0.95;;;30.00;88.00;;;;;;5009826;28;20065;-60
2022/08/05 08:49:23;;;;;;;3.72;0.93;;;30.70;87.40;;;;;;5010060;28;20050;-61
2022/08/05 08:51:57;;;;;;;3.47;0.93;;;30.90;85.40;;;;;;5008451;28;20050;-61
2022/08/05 08:54:25;;;;;;;3.78;1.02;;;30.30;84.50;;;;;;5009158;28;20046;-62
2022/08/05 08:56:50;;;;;;;6.68;0.80;;;29.90;84.80;;;;;;5010100;28;20046;-61
2022/08/05 08:59:19;;;;;;;2.63;0.75;;;30.00;85.50;;;;;;5010174;28;20042;-61
2022/08/05 09:01:45;;;;;;;2.50;0.75;;;30.20;85.20;;;;;;5008084;28;20636;-62
2022/08/05 09:04:12;;;;;;;3.33;1.00;;;30.30;85.00;;;;;;5010043;28;20057;-62
2022/08/05 09:06:38;;;;;;;1.73;0.70;;;30.20;84.80;;;;;;5009040;28;20057;-61
2022/08/05 09:09:04;;;;;;;1.52;0.80;;;30.60;84.60;;;;;;5009793;28;20408;-61
2022/08/05 09:11:32;;;;;;;2.83;1.08;;;30.90;85.30;;;;;;5008267;28;20561;-62
2022/08/05 09:13:59;;;;;;;1.50;0.85;;;31.00;85.10;;;;;;5009522;28;20054;-61
2022/08/05 09:16:25;;;;;;;2.97;0.88;;;30.70;85.10;;;;;;5015525;28;20141;-61
2022/08/05 09:18:51;;;;;;;2.45;0.95;;;30.70;84.20;;;;;;5009826;28;20096;-61
2022/08/05 09:21:18;;;;;;;3.78;0.77;;;30.80;83.90;;;;;;5010337;28;20133;-62
2022/08/05 09:23:44;;;;;;;1.35;0.70;;;31.00;83.30;;;;;;5009142;28;20103;-62
2022/08/05 09:26:16;;;;;;;3.42;0.90;;;31.20;82.90;;;;;;5025941;28;20057;-61
2022/08/05 09:28:42;;;;;;;1.38;0.55;;;31.20;82.10;;;;;;5005457;28;20111;-63
2022/08/05 09:31:10;;;;;;;2.95;1.00;;;31.50;81.70;;;;;;5007842;28;20128;-61
2022/08/05 09:33:54;;;;;;;5.43;1.25;;;31.50;80.90;;;;;;5006710;28;20046;-61
2022/08/05 09:36:20;;;;;;;1.90;0.70;;;31.70;81.10;;;;;;5009855;28;20046;-61
2022/08/05 09:39:06;;;;;;;4.43;0.93;;;31.20;82.00;;;;;;5008502;28;20196;-60
2022/08/05 09:41:32;;;;;;;1.42;0.60;;;31.00;82.80;;;;;;5002164;28;20504;-65
2022/08/05 09:43:58;;;;;;;2.63;0.70;;;31.00;83.30;;;;;;5010759;28;20456;-63
2022/08/05 09:46:32;;;;;;;1.95;0.70;;;31.00;81.60;;;;;;5012745;28;20097;-61
2022/08/05 09:49:03;;;;;;;3.80;1.00;;;31.00;82.30;;;;;;5016562;28;20100;-61
2022/08/05 09:51:38;;;;;;;5.00;1.00;;;30.80;81.30;;;;;;5026169;28;20119;-61
2022/08/05 09:54:07;;;;;;;2.40;0.90;;;30.20;81.00;;;;;;5008932;28;20058;-63
2022/08/05 09:56:38;;;;;;;1.85;0.73;;;29.30;82.80;;;;;;5011125;28;20049;-66
2022/08/05 09:59:10;;;;;;;1.45;0.80;;;28.90;83.40;;;;;;5007651;28;20112;-61
2022/08/05 10:01:40;;;;;;;2.92;1.00;;;28.30;83.30;;;;;;5010223;28;20045;-62
2022/08/05 10:04:11;;;;;;;3.30;1.00;;;28.10;84.20;;;;;;5011300;28;20526;-63
2022/08/05 10:06:41;;;;;;;2.05;0.85;;;27.90;84.40;;;;;;5009143;28;20050;-62
2022/08/05 10:09:15;;;;;;;5.15;0.90;;;27.90;84.40;;;;;;4993453;28;20119;-62
2022/08/05 10:11:42;;;;;;;3.15;1.20;;;27.70;84.50;;;;;;5008144;28;20077;-61
2022/08/05 10:14:22;;;;;;;2.72;0.55;;;27.60;82.50;;;;;;5011235;28;20360;-60
2022/08/05 10:16:48;;;;;;;1.73;0.68;;;27.60;81.60;;;;;;5010068;28;20041;-61
2022/08/05 10:19:15;;;;;;;2.28;0.63;;;27.40;81.40;;;;;;5018658;28;20399;-61
2022/08/05 10:21:41;;;;;;;3.85;0.82;;;27.30;83.30;;;;;;5008834;28;20053;-62
2022/08/05 10:24:08;;;;;;;1.38;0.70;;;27.40;82.20;;;;;;5012199;28;20042;-61
2022/08/05 10:26:35;;;;;;;1.70;0.57;;;27.30;78.10;;;;;;5012166;28;20060;-61
2022/08/05 10:29:01;;;;;;;2.53;0.90;;;27.30;78.50;;;;;;5010995;28;20143;-62
2022/08/05 10:31:27;;;;;;;4.32;0.95;;;27.20;77.50;;;;;;5011499;28;20129;-60
2022/08/05 10:33:52;;;;;;;3.53;0.70;;;27.00;77.30;;;;;;5011654;28;20070;-60
2022/08/05 10:36:18;;;;;;;1.63;0.57;;;26.90;77.90;;;;;;5011988;28;20050;-59
2022/08/05 10:38:46;;;;;;;2.75;0.85;;;27.10;78.30;;;;;;5011301;28;20060;-61
2022/08/05 10:41:28;;;;;;;1.23;0.65;;;27.20;77.90;;;;;;5011422;28;20068;-61
2022/08/05 10:44:12;;;;;;;1.95;0.65;;;27.20;74.80;;;;;;5032846;28;20081;-62
2022/08/05 10:46:46;;;;;;;1.05;0.55;;;27.10;75.90;;;;;;5007380;28;20093;-61
2022/08/05 10:49:12;;;;;;;2.25;0.80;;;26.90;77.20;;;;;;5009312;28;20476;-61
2022/08/05 10:51:43;;;;;;;1.15;0.35;;;26.60;78.20;;;;;;5034355;28;20124;-61
2022/08/05 10:54:09;;;;;;;0.98;0.50;;;26.50;77.60;;;;;;5011813;28;20431;-61
2022/08/05 10:56:44;;;;;;;2.90;0.88;;;26.60;79.00;;;;;;5009072;28;20056;-61
2022/08/05 10:59:09;;;;;;;0.77;0.45;;;26.70;78.80;;;;;;5009082;28;20514;-60
2022/08/05 11:01:45;;;;;;;0.98;0.55;;;26.50;78.60;;;;;;4989931;28;20054;-61
2022/08/05 11:04:16;;;;;;;2.60;0.82;;;26.40;81.10;;;;;;5010355;28;20563;-60
2022/08/05 11:06:59;;;;;;;2.63;0.60;;;26.20;81.00;;;;;;5007778;28;20054;-63
2022/08/05 11:09:26;;;;;;;0.98;0.50;;;26.10;80.50;;;;;;5006902;28;20069;-61
2022/08/05 11:11:54;;;;;;;0.65;0.43;;;26.10;78.30;;;;;;5010463;28;20046;-60
2022/08/05 11:14:28;;;;;;;4.80;0.82;;;26.10;76.20;;;;;;5006279;28;20394;-59
2022/08/05 11:17:33;;;;;;;2.33;0.57;;;26.00;77.30;;;;;;5010081;28;20155;-59
2022/08/05 11:20:00;;;;;;;1.02;0.50;;;26.00;79.60;;;;;;5006934;28;20100;-62
2022/08/05 11:22:47;;;;;;;1.13;0.70;;;25.90;80.20;;;;;;5009658;28;20601;-62
2022/08/05 11:25:33;;;;;;;4.05;0.77;;;26.00;80.50;;;;;;5027239;28;20074;-61
2022/08/05 11:28:11;;;;;;;1.00;0.63;;;25.90;79.20;;;;;;5003848;28;20472;-60
2022/08/05 11:31:00;;;;;;;2.78;1.00;;;25.70;80.70;;;;;;5019240;28;20381;-60
2022/08/05 11:33:35;;;;;;;1.73;0.63;;;25.50;82.40;;;;;;5009515;28;20073;-61
2022/08/05 11:36:24;;;;;;;2.05;0.63;;;25.60;82.00;;;;;;5038612;28;20132;-59
2022/08/05 11:38:54;;;;;;;4.53;0.95;;;25.50;82.90;;;;;;4990601;28;20404;-62
2022/08/05 11:41:25;;;;;;;6.65;0.98;;;25.30;84.40;;;;;;4992639;28;20049;-61
2022/08/05 11:44:05;;;;;;;3.97;1.00;;;25.30;82.30;;;;;;4995089;28;20057;-60
2022/08/05 11:46:41;;;;;;;2.75;0.95;;;25.10;81.50;;;;;;5000245;28;20137;-60
2022/08/05 11:49:12;;;;;;;2.47;0.80;;;25.00;83.10;;;;;;5009955;28;20034;-60
2022/08/05 11:51:43;;;;;;;4.13;0.90;;;24.80;84.00;;;;;;5007080;28;20418;-60
2022/08/05 11:54:19;;;;;;;1.88;0.60;;;24.40;85.60;;;;;;5009230;28;20113;-60
2022/08/05 11:56:52;;;;;;;1.65;0.80;;;24.30;85.80;;;;;;5000918;28;20133;-62
2022/08/05 11:59:28;;;;;;;1.52;0.70;;;24.20;86.80;;;;;;5001297;28;20042;-60
2022/08/05 12:02:01;;;;;;;3.10;0.98;;;24.00;88.20;;;;;;5008471;28;20062;-61
2022/08/05 12:04:41;;;;;;;1.73;0.77;;;24.00;88.80;;;;;;5005303;28;20077;-60
2022/08/05 12:07:08;;;;;;;1.27;0.65;;;24.00;88.70;;;;;;5009658;28;20042;-60
2022/08/05 12:09:39;;;;;;;2.30;0.75;;;23.90;89.20;;;;;;5012009;28;20050;-61
2022/08/05 12:12:06;;;;;;;4.20;0.90;;;23.90;89.30;;;;;;5008967;28;20054;-61
2022/08/05 12:14:41;;;;;;;2.42;0.60;;;23.90;89.20;;;;;;5010611;28;20049;-60
2022/08/05 12:17:09;;;;;;;4.13;1.00;;;23.80;88.70;;;;;;5042337;28;20466;-61
2022/08/05 12:19:52;;;;;;;2.65;0.88;;;23.70;89.20;;;;;;5010560;28;20095;-61
2022/08/05 12:22:28;;;;;;;2.83;1.10;;;23.50;88.20;;;;;;5010284;28;20038;-60
2022/08/05 12:24:56;;;;;;;1.48;0.70;;;23.40;87.60;;;;;;5006583;28;20080;-62
2022/08/05 12:27:28;;;;;;;1.88;0.75;;;23.40;88.20;;;;;;5010462;28;20456;-61
2022/08/05 12:30:06;;;;;;;1.35;0.47;;;23.70;88.10;;;;;;5015427;28;20483;-60
2022/08/05 12:32:42;;;;;;;2.35;0.98;;;23.70;85.10;;;;;;5010284;28;20053;-61
2022/08/05 12:35:08;;;;;;;1.95;0.50;;;23.60;86.10;;;;;;5008893;28;20052;-61
2022/08/05 12:37:34;;;;;;;2.33;0.90;;;23.70;85.30;;;;;;5010416;28;20042;-61
2022/08/05 12:40:01;;;;;;;4.60;0.70;;;23.80;87.20;;;;;;5006279;28;20045;-60
2022/08/05 12:42:30;;;;;;;3.35;1.13;;;23.90;85.20;;;;;;5009150;28;20388;-62
2022/08/05 12:45:05;;;;;;;2.55;0.90;;;24.00;86.50;;;;;;5009754;28;20095;-63
2022/08/05 12:47:31;;;;;;;3.28;0.80;;;24.00;85.80;;;;;;5010524;28;20459;-62
2022/08/05 12:49:58;;;;;;;3.22;0.68;;;24.10;86.10;;;;;;5041821;28;20330;-64
2022/08/05 12:52:24;;;;;;;3.63;0.60;;;24.00;86.40;;;;;;5010112;28;20060;-62
2022/08/05 12:54:50;;;;;;;2.28;0.55;;;23.80;87.10;;;;;;5010266;28;20543;-62
2022/08/05 12:57:17;;;;;;;2.50;0.65;;;23.80;87.20;;;;;;5025033;28;20053;-62
2022/08/05 12:59:45;;;;;;;2.50;0.80;;;23.80;88.00;;;;;;5009034;28;20038;-62